sensor_id;sensor_type;location;lat;lon;timestamp;P1;durP1;ratioP1;P2;durP2;ratioP2
14048;SDS011;7099;53.922;10.728;2023-08-07T00:03:39;5.88;;;2.50;;
14048;SDS011;7099;53.922;10.728;2023-08-07T00:07:45;6.90;;;2.90;;
14048;SDS011;7099;53.922;10.728;2023-08-07T00:11:51;6.10;;;2.50;;
14048;SDS011;7099;53.922;10.728;2023-08-07T00:15:57;6.43;;;2.40;;
14048;SDS011;7099;53.922;10.728;2023-08-07T00:20:03;4.40;;;2.40;;
14048;SDS011;7099;53.922;10.728;2023-08-07T00:24:09;6.40;;;2.60;;
14048;SDS011;7099;53.922;10.728;2023-08-07T00:28:15;9.23;;;2.67;;
14048;SDS011;7099;53.922;10.728;2023-08-07T00:32:20;5.85;;;2.90;;
14048;SDS011;7099;53.922;10.728;2023-08-07T00:36:26;7.80;;;2.40;;
14048;SDS011;7099;53.922;10.728;2023-08-07T00:40:37;5.17;;;2.50;;
14048;SDS011;7099;53.922;10.728;2023-08-07T00:44:43;6.18;;;2.20;;
14048;SDS011;7099;53.922;10.728;2023-08-07T00:48:49;5.38;;;2.30;;
14048;SDS011;7099;53.922;10.728;2023-08-07T00:52:56;7.18;;;2.20;;
14048;SDS011;7099;53.922;10.728;2023-08-07T00:57:09;4.70;;;2.00;;
14048;SDS011;7099;53.922;10.728;2023-08-07T01:01:17;6.53;;;2.30;;
14048;SDS011;7099;53.922;10.728;2023-08-07T01:05:24;3.80;;;2.20;;
14048;SDS011;7099;53.922;10.728;2023-08-07T01:09:33;6.20;;;2.20;;
14048;SDS011;7099;53.922;10.728;2023-08-07T01:13:40;5.03;;;2.13;;
14048;SDS011;7099;53.922;10.728;2023-08-07T01:17:50;3.63;;;1.90;;
14048;SDS011;7099;53.922;10.728;2023-08-07T01:22:17;5.88;;;2.30;;
14048;SDS011;7099;53.922;10.728;2023-08-07T01:26:24;5.20;;;2.30;;
14048;SDS011;7099;53.922;10.728;2023-08-07T01:30:33;4.17;;;2.10;;
14048;SDS011;7099;53.922;10.728;2023-08-07T01:34:47;1.93;;;1.70;;
14048;SDS011;7099;53.922;10.728;2023-08-07T01:38:55;3.37;;;1.97;;
14048;SDS011;7099;53.922;10.728;2023-08-07T02:32:11;6.63;;;2.10;;
14048;SDS011;7099;53.922;10.728;2023-08-07T02:36:16;7.80;;;2.10;;
14048;SDS011;7099;53.922;10.728;2023-08-07T02:40:22;2.70;;;1.60;;
14048;SDS011;7099;53.922;10.728;2023-08-07T02:44:27;3.67;;;1.60;;
14048;SDS011;7099;53.922;10.728;2023-08-07T02:48:33;2.30;;;1.60;;
14048;SDS011;7099;53.922;10.728;2023-08-07T02:52:38;2.27;;;1.50;;
14048;SDS011;7099;53.922;10.728;2023-08-07T02:56:44;4.57;;;1.80;;
14048;SDS011;7099;53.922;10.728;2023-08-07T03:00:49;4.57;;;2.60;;
14048;SDS011;7099;53.922;10.728;2023-08-07T03:04:55;2.80;;;1.53;;
14048;SDS011;7099;53.922;10.728;2023-08-07T03:09:00;1.63;;;1.43;;
14048;SDS011;7099;53.922;10.728;2023-08-07T03:13:06;3.73;;;1.70;;
14048;SDS011;7099;53.922;10.728;2023-08-07T03:17:11;6.90;;;1.80;;
14048;SDS011;7099;53.922;10.728;2023-08-07T03:21:17;7.33;;;2.00;;
14048;SDS011;7099;53.922;10.728;2023-08-07T03:25:22;5.33;;;1.90;;
14048;SDS011;7099;53.922;10.728;2023-08-07T03:29:28;5.50;;;1.50;;
14048;SDS011;7099;53.922;10.728;2023-08-07T03:33:33;2.53;;;1.60;;
14048;SDS011;7099;53.922;10.728;2023-08-07T03:37:39;5.50;;;1.97;;
14048;SDS011;7099;53.922;10.728;2023-08-07T03:41:47;4.93;;;2.03;;
14048;SDS011;7099;53.922;10.728;2023-08-07T03:45:55;2.20;;;1.73;;
14048;SDS011;7099;53.922;10.728;2023-08-07T03:50:06;6.03;;;1.90;;
14048;SDS011;7099;53.922;10.728;2023-08-07T03:54:12;3.70;;;1.80;;
14048;SDS011;7099;53.922;10.728;2023-08-07T03:58:17;7.20;;;2.00;;
14048;SDS011;7099;53.922;10.728;2023-08-07T04:02:23;2.43;;;1.73;;
14048;SDS011;7099;53.922;10.728;2023-08-07T04:06:30;1.60;;;1.40;;
14048;SDS011;7099;53.922;10.728;2023-08-07T04:10:36;1.77;;;1.67;;
14048;SDS011;7099;53.922;10.728;2023-08-07T04:14:41;2.90;;;1.70;;
14048;SDS011;7099;53.922;10.728;2023-08-07T04:18:47;2.07;;;1.80;;
14048;SDS011;7099;53.922;10.728;2023-08-07T04:22:52;1.80;;;1.60;;
14048;SDS011;7099;53.922;10.728;2023-08-07T04:26:58;4.00;;;2.00;;
14048;SDS011;7099;53.922;10.728;2023-08-07T04:31:03;2.30;;;1.57;;
14048;SDS011;7099;53.922;10.728;2023-08-07T04:35:09;4.93;;;2.20;;
14048;SDS011;7099;53.922;10.728;2023-08-07T04:39:14;6.23;;;1.60;;
14048;SDS011;7099;53.922;10.728;2023-08-07T04:43:20;4.53;;;2.00;;
14048;SDS011;7099;53.922;10.728;2023-08-07T04:47:27;3.50;;;1.80;;
14048;SDS011;7099;53.922;10.728;2023-08-07T04:51:33;3.80;;;1.77;;
14048;SDS011;7099;53.922;10.728;2023-08-07T04:55:39;6.93;;;2.10;;
14048;SDS011;7099;53.922;10.728;2023-08-07T04:59:44;6.93;;;1.77;;
14048;SDS011;7099;53.922;10.728;2023-08-07T05:03:50;4.23;;;2.20;;
14048;SDS011;7099;53.922;10.728;2023-08-07T05:07:57;5.30;;;1.90;;
14048;SDS011;7099;53.922;10.728;2023-08-07T05:12:04;3.53;;;1.63;;
14048;SDS011;7099;53.922;10.728;2023-08-07T05:16:11;4.80;;;2.27;;
14048;SDS011;7099;53.922;10.728;2023-08-07T05:20:17;5.77;;;1.97;;
14048;SDS011;7099;53.922;10.728;2023-08-07T05:24:23;11.10;;;2.37;;
14048;SDS011;7099;53.922;10.728;2023-08-07T05:28:29;3.47;;;1.63;;
14048;SDS011;7099;53.922;10.728;2023-08-07T05:32:34;3.33;;;1.87;;
14048;SDS011;7099;53.922;10.728;2023-08-07T05:36:42;7.43;;;2.27;;
14048;SDS011;7099;53.922;10.728;2023-08-07T05:40:48;3.57;;;1.63;;
14048;SDS011;7099;53.922;10.728;2023-08-07T05:44:53;6.77;;;2.03;;
14048;SDS011;7099;53.922;10.728;2023-08-07T05:48:59;7.47;;;2.37;;
14048;SDS011;7099;53.922;10.728;2023-08-07T05:53:05;7.57;;;1.90;;
14048;SDS011;7099;53.922;10.728;2023-08-07T05:57:10;9.57;;;2.50;;
14048;SDS011;7099;53.922;10.728;2023-08-07T06:01:16;6.97;;;1.90;;
14048;SDS011;7099;53.922;10.728;2023-08-07T06:05:22;4.77;;;2.03;;
14048;SDS011;7099;53.922;10.728;2023-08-07T06:09:28;7.80;;;2.13;;
14048;SDS011;7099;53.922;10.728;2023-08-07T06:13:34;5.30;;;1.87;;
14048;SDS011;7099;53.922;10.728;2023-08-07T06:17:40;10.23;;;2.30;;
14048;SDS011;7099;53.922;10.728;2023-08-07T06:21:46;6.00;;;1.93;;
14048;SDS011;7099;53.922;10.728;2023-08-07T06:25:51;21.57;;;2.33;;
14048;SDS011;7099;53.922;10.728;2023-08-07T06:30:03;9.30;;;2.80;;
14048;SDS011;7099;53.922;10.728;2023-08-07T06:34:10;13.37;;;2.50;;
14048;SDS011;7099;53.922;10.728;2023-08-07T06:38:15;7.67;;;2.10;;
14048;SDS011;7099;53.922;10.728;2023-08-07T06:42:21;6.90;;;2.40;;
14048;SDS011;7099;53.922;10.728;2023-08-07T06:46:26;9.97;;;2.70;;
14048;SDS011;7099;53.922;10.728;2023-08-07T06:50:32;8.03;;;2.40;;
14048;SDS011;7099;53.922;10.728;2023-08-07T06:54:38;11.80;;;2.60;;
14048;SDS011;7099;53.922;10.728;2023-08-07T06:58:43;9.07;;;2.70;;
14048;SDS011;7099;53.922;10.728;2023-08-07T07:02:49;7.43;;;2.30;;
14048;SDS011;7099;53.922;10.728;2023-08-07T07:06:55;10.07;;;2.80;;
14048;SDS011;7099;53.922;10.728;2023-08-07T07:11:00;11.70;;;3.00;;
14048;SDS011;7099;53.922;10.728;2023-08-07T07:15:06;13.80;;;3.03;;
14048;SDS011;7099;53.922;10.728;2023-08-07T07:19:12;14.20;;;2.90;;
14048;SDS011;7099;53.922;10.728;2023-08-07T07:23:17;10.80;;;3.10;;
14048;SDS011;7099;53.922;10.728;2023-08-07T07:27:23;11.93;;;2.37;;
14048;SDS011;7099;53.922;10.728;2023-08-07T07:31:30;14.03;;;2.90;;
14048;SDS011;7099;53.922;10.728;2023-08-07T07:35:39;13.40;;;3.23;;
14048;SDS011;7099;53.922;10.728;2023-08-07T07:39:44;11.50;;;3.00;;
14048;SDS011;7099;53.922;10.728;2023-08-07T07:43:50;22.70;;;3.70;;
14048;SDS011;7099;53.922;10.728;2023-08-07T07:52:02;13.90;;;3.23;;
14048;SDS011;7099;53.922;10.728;2023-08-07T07:56:09;10.37;;;2.97;;
14048;SDS011;7099;53.922;10.728;2023-08-07T08:00:15;13.00;;;3.30;;
14048;SDS011;7099;53.922;10.728;2023-08-07T08:04:21;10.63;;;2.83;;
14048;SDS011;7099;53.922;10.728;2023-08-07T08:08:26;11.30;;;3.40;;
14048;SDS011;7099;53.922;10.728;2023-08-07T08:12:32;23.43;;;5.30;;
14048;SDS011;7099;53.922;10.728;2023-08-07T08:16:38;15.43;;;2.47;;
14048;SDS011;7099;53.922;10.728;2023-08-07T08:20:44;18.93;;;3.30;;
14048;SDS011;7099;53.922;10.728;2023-08-07T08:24:49;14.40;;;3.33;;
14048;SDS011;7099;53.922;10.728;2023-08-07T08:28:55;18.03;;;3.27;;
14048;SDS011;7099;53.922;10.728;2023-08-07T08:33:00;11.83;;;3.10;;
14048;SDS011;7099;53.922;10.728;2023-08-07T08:37:06;14.43;;;3.90;;
14048;SDS011;7099;53.922;10.728;2023-08-07T08:41:12;9.43;;;3.30;;
14048;SDS011;7099;53.922;10.728;2023-08-07T08:45:19;16.73;;;3.17;;
14048;SDS011;7099;53.922;10.728;2023-08-07T08:49:28;21.37;;;3.33;;
14048;SDS011;7099;53.922;10.728;2023-08-07T08:53:39;11.63;;;3.40;;
14048;SDS011;7099;53.922;10.728;2023-08-07T09:47:13;16.17;;;2.87;;
14048;SDS011;7099;53.922;10.728;2023-08-07T09:51:21;10.57;;;2.30;;
14048;SDS011;7099;53.922;10.728;2023-08-07T09:55:26;8.27;;;2.73;;
14048;SDS011;7099;53.922;10.728;2023-08-07T09:59:32;8.37;;;2.83;;
14048;SDS011;7099;53.922;10.728;2023-08-07T10:03:39;11.20;;;2.97;;
14048;SDS011;7099;53.922;10.728;2023-08-07T10:07:45;6.20;;;2.20;;
14048;SDS011;7099;53.922;10.728;2023-08-07T10:11:51;11.17;;;3.03;;
14048;SDS011;7099;53.922;10.728;2023-08-07T10:20:03;6.60;;;2.27;;
14048;SDS011;7099;53.922;10.728;2023-08-07T10:24:11;11.20;;;2.83;;
14048;SDS011;7099;53.922;10.728;2023-08-07T10:28:18;9.50;;;2.80;;
14048;SDS011;7099;53.922;10.728;2023-08-07T10:32:27;6.03;;;2.30;;
14048;SDS011;7099;53.922;10.728;2023-08-07T10:36:34;9.33;;;2.80;;
14048;SDS011;7099;53.922;10.728;2023-08-07T10:40:59;16.50;;;2.73;;
14048;SDS011;7099;53.922;10.728;2023-08-07T10:45:06;12.33;;;3.03;;
14048;SDS011;7099;53.922;10.728;2023-08-07T10:49:11;11.87;;;2.87;;
14048;SDS011;7099;53.922;10.728;2023-08-07T10:53:37;8.53;;;2.13;;
14048;SDS011;7099;53.922;10.728;2023-08-07T10:57:51;14.73;;;3.27;;
14048;SDS011;7099;53.922;10.728;2023-08-07T11:01:57;10.00;;;2.17;;
14048;SDS011;7099;53.922;10.728;2023-08-07T11:06:04;10.70;;;2.90;;
14048;SDS011;7099;53.922;10.728;2023-08-07T11:10:12;10.23;;;3.37;;
14048;SDS011;7099;53.922;10.728;2023-08-07T11:14:20;11.40;;;2.93;;
14048;SDS011;7099;53.922;10.728;2023-08-07T11:18:26;9.30;;;2.10;;
14048;SDS011;7099;53.922;10.728;2023-08-07T11:22:31;7.43;;;2.57;;
14048;SDS011;7099;53.922;10.728;2023-08-07T11:26:37;8.63;;;2.37;;
14048;SDS011;7099;53.922;10.728;2023-08-07T11:30:42;9.17;;;2.20;;
14048;SDS011;7099;53.922;10.728;2023-08-07T11:34:49;9.00;;;2.77;;
14048;SDS011;7099;53.922;10.728;2023-08-07T11:38:57;14.00;;;2.60;;
14048;SDS011;7099;53.922;10.728;2023-08-07T11:43:03;8.23;;;2.00;;
14048;SDS011;7099;53.922;10.728;2023-08-07T11:47:09;8.60;;;2.00;;
14048;SDS011;7099;53.922;10.728;2023-08-07T11:51:15;9.97;;;3.00;;
14048;SDS011;7099;53.922;10.728;2023-08-07T11:55:21;7.10;;;2.23;;
14048;SDS011;7099;53.922;10.728;2023-08-07T11:59:29;9.13;;;2.23;;
14048;SDS011;7099;53.922;10.728;2023-08-07T12:03:35;17.73;;;3.10;;
14048;SDS011;7099;53.922;10.728;2023-08-07T12:07:45;10.27;;;2.77;;
14048;SDS011;7099;53.922;10.728;2023-08-07T12:11:56;8.67;;;2.00;;
14048;SDS011;7099;53.922;10.728;2023-08-07T12:16:03;10.07;;;2.10;;
14048;SDS011;7099;53.922;10.728;2023-08-07T12:20:09;10.13;;;3.00;;
14048;SDS011;7099;53.922;10.728;2023-08-07T12:24:17;8.57;;;2.23;;
14048;SDS011;7099;53.922;10.728;2023-08-07T12:28:22;7.30;;;2.20;;
14048;SDS011;7099;53.922;10.728;2023-08-07T12:32:28;7.23;;;1.73;;
14048;SDS011;7099;53.922;10.728;2023-08-07T12:36:34;10.50;;;2.50;;
14048;SDS011;7099;53.922;10.728;2023-08-07T12:40:39;10.90;;;2.73;;
14048;SDS011;7099;53.922;10.728;2023-08-07T12:44:48;6.77;;;2.13;;
14048;SDS011;7099;53.922;10.728;2023-08-07T12:48:53;10.73;;;2.27;;
14048;SDS011;7099;53.922;10.728;2023-08-07T12:52:59;7.30;;;2.27;;
14048;SDS011;7099;53.922;10.728;2023-08-07T12:57:04;8.23;;;2.17;;
14048;SDS011;7099;53.922;10.728;2023-08-07T13:01:10;7.63;;;2.03;;
14048;SDS011;7099;53.922;10.728;2023-08-07T13:05:16;8.43;;;2.40;;
14048;SDS011;7099;53.922;10.728;2023-08-07T13:09:23;4.83;;;1.87;;
14048;SDS011;7099;53.922;10.728;2023-08-07T13:13:29;8.73;;;2.20;;
14048;SDS011;7099;53.922;10.728;2023-08-07T13:17:35;8.10;;;2.00;;
14048;SDS011;7099;53.922;10.728;2023-08-07T13:21:41;11.33;;;2.90;;
14048;SDS011;7099;53.922;10.728;2023-08-07T13:25:46;8.77;;;2.20;;
14048;SDS011;7099;53.922;10.728;2023-08-07T13:29:52;6.43;;;2.33;;
14048;SDS011;7099;53.922;10.728;2023-08-07T13:33:58;7.93;;;2.10;;
14048;SDS011;7099;53.922;10.728;2023-08-07T13:38:03;8.30;;;2.33;;
14048;SDS011;7099;53.922;10.728;2023-08-07T13:42:12;5.00;;;1.60;;
14048;SDS011;7099;53.922;10.728;2023-08-07T13:46:18;5.50;;;1.67;;
14048;SDS011;7099;53.922;10.728;2023-08-07T13:50:24;8.30;;;2.20;;
14048;SDS011;7099;53.922;10.728;2023-08-07T13:54:29;7.63;;;2.07;;
14048;SDS011;7099;53.922;10.728;2023-08-07T13:58:35;6.57;;;1.70;;
14048;SDS011;7099;53.922;10.728;2023-08-07T14:02:40;9.93;;;2.33;;
14048;SDS011;7099;53.922;10.728;2023-08-07T14:06:46;12.63;;;2.03;;
14048;SDS011;7099;53.922;10.728;2023-08-07T14:10:52;6.30;;;1.53;;
14048;SDS011;7099;53.922;10.728;2023-08-07T14:14:58;8.50;;;1.90;;
14048;SDS011;7099;53.922;10.728;2023-08-07T14:19:03;6.63;;;1.87;;
14048;SDS011;7099;53.922;10.728;2023-08-07T14:23:09;4.97;;;1.60;;
14048;SDS011;7099;53.922;10.728;2023-08-07T14:27:25;22.37;;;2.30;;
14048;SDS011;7099;53.922;10.728;2023-08-07T14:31:31;8.43;;;1.97;;
14048;SDS011;7099;53.922;10.728;2023-08-07T14:35:36;7.87;;;2.43;;
14048;SDS011;7099;53.922;10.728;2023-08-07T14:39:42;10.13;;;2.30;;
14048;SDS011;7099;53.922;10.728;2023-08-07T14:43:47;24.00;;;3.00;;
14048;SDS011;7099;53.922;10.728;2023-08-07T14:47:53;15.67;;;3.30;;
14048;SDS011;7099;53.922;10.728;2023-08-07T14:51:59;13.53;;;2.50;;
14048;SDS011;7099;53.922;10.728;2023-08-07T14:56:05;7.67;;;2.80;;
14048;SDS011;7099;53.922;10.728;2023-08-07T15:00:10;10.20;;;3.10;;
14048;SDS011;7099;53.922;10.728;2023-08-07T15:04:17;7.83;;;3.03;;
14048;SDS011;7099;53.922;10.728;2023-08-07T15:08:22;9.60;;;2.60;;
14048;SDS011;7099;53.922;10.728;2023-08-07T15:12:28;8.93;;;2.70;;
14048;SDS011;7099;53.922;10.728;2023-08-07T15:16:34;11.60;;;3.93;;
14048;SDS011;7099;53.922;10.728;2023-08-07T15:20:40;8.57;;;2.83;;
14048;SDS011;7099;53.922;10.728;2023-08-07T15:24:46;10.83;;;2.37;;
14048;SDS011;7099;53.922;10.728;2023-08-07T15:28:52;10.87;;;2.50;;
14048;SDS011;7099;53.922;10.728;2023-08-07T15:32:57;11.17;;;2.90;;
14048;SDS011;7099;53.922;10.728;2023-08-07T15:37:03;10.67;;;2.57;;
14048;SDS011;7099;53.922;10.728;2023-08-07T15:41:10;20.17;;;2.60;;
14048;SDS011;7099;53.922;10.728;2023-08-07T15:45:16;10.50;;;2.80;;
14048;SDS011;7099;53.922;10.728;2023-08-07T15:49:22;15.30;;;2.97;;
14048;SDS011;7099;53.922;10.728;2023-08-07T15:53:28;10.97;;;1.93;;
14048;SDS011;7099;53.922;10.728;2023-08-07T15:57:34;6.03;;;2.33;;
14048;SDS011;7099;53.922;10.728;2023-08-07T16:01:39;10.37;;;2.43;;
14048;SDS011;7099;53.922;10.728;2023-08-07T16:05:45;5.00;;;1.57;;
14048;SDS011;7099;53.922;10.728;2023-08-07T16:09:51;10.27;;;2.60;;
14048;SDS011;7099;53.922;10.728;2023-08-07T16:13:56;7.70;;;2.43;;
14048;SDS011;7099;53.922;10.728;2023-08-07T16:18:02;6.37;;;2.50;;
14048;SDS011;7099;53.922;10.728;2023-08-07T16:22:08;5.00;;;2.27;;
14048;SDS011;7099;53.922;10.728;2023-08-07T16:26:13;11.70;;;2.70;;
14048;SDS011;7099;53.922;10.728;2023-08-07T16:30:19;18.60;;;2.67;;
14048;SDS011;7099;53.922;10.728;2023-08-07T16:34:25;7.90;;;2.57;;
14048;SDS011;7099;53.922;10.728;2023-08-07T16:38:30;13.63;;;2.77;;
14048;SDS011;7099;53.922;10.728;2023-08-07T16:42:36;18.53;;;2.70;;
14048;SDS011;7099;53.922;10.728;2023-08-07T16:46:41;10.77;;;2.87;;
14048;SDS011;7099;53.922;10.728;2023-08-07T16:50:47;12.23;;;2.30;;
14048;SDS011;7099;53.922;10.728;2023-08-07T16:55:12;10.43;;;2.60;;
14048;SDS011;7099;53.922;10.728;2023-08-07T16:59:18;11.70;;;2.90;;
14048;SDS011;7099;53.922;10.728;2023-08-07T17:03:24;8.77;;;2.40;;
14048;SDS011;7099;53.922;10.728;2023-08-07T17:07:30;12.70;;;2.57;;
14048;SDS011;7099;53.922;10.728;2023-08-07T17:11:35;7.50;;;2.33;;
14048;SDS011;7099;53.922;10.728;2023-08-07T17:15:41;9.70;;;2.57;;
14048;SDS011;7099;53.922;10.728;2023-08-07T17:19:47;14.87;;;2.87;;
14048;SDS011;7099;53.922;10.728;2023-08-07T17:23:53;8.33;;;2.83;;
14048;SDS011;7099;53.922;10.728;2023-08-07T17:27:58;10.93;;;2.70;;
14048;SDS011;7099;53.922;10.728;2023-08-07T17:32:04;15.80;;;3.10;;
14048;SDS011;7099;53.922;10.728;2023-08-07T17:36:11;14.27;;;3.40;;
14048;SDS011;7099;53.922;10.728;2023-08-07T17:40:16;10.37;;;3.33;;
14048;SDS011;7099;53.922;10.728;2023-08-07T17:44:22;13.10;;;3.67;;
14048;SDS011;7099;53.922;10.728;2023-08-07T17:48:27;14.40;;;3.33;;
14048;SDS011;7099;53.922;10.728;2023-08-07T17:52:33;8.87;;;3.60;;
14048;SDS011;7099;53.922;10.728;2023-08-07T17:56:38;11.70;;;2.73;;
14048;SDS011;7099;53.922;10.728;2023-08-07T18:00:44;11.07;;;2.40;;
14048;SDS011;7099;53.922;10.728;2023-08-07T18:04:50;8.53;;;2.43;;
14048;SDS011;7099;53.922;10.728;2023-08-07T18:08:55;13.07;;;2.70;;
14048;SDS011;7099;53.922;10.728;2023-08-07T18:13:02;8.13;;;2.40;;
14048;SDS011;7099;53.922;10.728;2023-08-07T18:17:07;7.70;;;2.17;;
14048;SDS011;7099;53.922;10.728;2023-08-07T18:21:13;11.00;;;2.70;;
14048;SDS011;7099;53.922;10.728;2023-08-07T18:25:19;12.27;;;3.03;;
14048;SDS011;7099;53.922;10.728;2023-08-07T18:29:24;6.67;;;2.27;;
14048;SDS011;7099;53.922;10.728;2023-08-07T18:33:30;11.60;;;2.40;;
14048;SDS011;7099;53.922;10.728;2023-08-07T18:37:36;9.30;;;2.40;;
14048;SDS011;7099;53.922;10.728;2023-08-07T18:41:42;10.73;;;2.73;;
14048;SDS011;7099;53.922;10.728;2023-08-07T18:45:48;10.83;;;2.53;;
14048;SDS011;7099;53.922;10.728;2023-08-07T18:49:55;4.93;;;2.40;;
14048;SDS011;7099;53.922;10.728;2023-08-07T18:58:06;17.63;;;3.27;;
14048;SDS011;7099;53.922;10.728;2023-08-07T19:02:11;14.63;;;3.10;;
14048;SDS011;7099;53.922;10.728;2023-08-07T19:06:17;11.23;;;2.80;;
14048;SDS011;7099;53.922;10.728;2023-08-07T19:10:23;10.60;;;2.70;;
14048;SDS011;7099;53.922;10.728;2023-08-07T19:14:28;9.60;;;3.37;;
14048;SDS011;7099;53.922;10.728;2023-08-07T19:18:34;23.33;;;3.40;;
14048;SDS011;7099;53.922;10.728;2023-08-07T19:22:40;14.70;;;3.03;;
14048;SDS011;7099;53.922;10.728;2023-08-07T19:26:46;11.20;;;2.97;;
14048;SDS011;7099;53.922;10.728;2023-08-07T19:30:51;13.07;;;2.87;;
14048;SDS011;7099;53.922;10.728;2023-08-07T19:35:10;10.33;;;3.30;;
14048;SDS011;7099;53.922;10.728;2023-08-07T19:39:16;10.63;;;2.40;;
14048;SDS011;7099;53.922;10.728;2023-08-07T19:43:22;11.50;;;2.60;;
14048;SDS011;7099;53.922;10.728;2023-08-07T19:47:28;18.60;;;3.63;;
14048;SDS011;7099;53.922;10.728;2023-08-07T19:51:40;17.87;;;3.23;;
14048;SDS011;7099;53.922;10.728;2023-08-07T19:55:46;17.47;;;3.23;;
14048;SDS011;7099;53.922;10.728;2023-08-07T19:59:54;13.13;;;2.77;;
14048;SDS011;7099;53.922;10.728;2023-08-07T20:03:59;9.67;;;2.60;;
14048;SDS011;7099;53.922;10.728;2023-08-07T20:08:05;5.90;;;2.37;;
14048;SDS011;7099;53.922;10.728;2023-08-07T20:12:10;13.30;;;2.57;;
14048;SDS011;7099;53.922;10.728;2023-08-07T20:16:16;16.37;;;3.33;;
14048;SDS011;7099;53.922;10.728;2023-08-07T20:20:21;9.63;;;3.33;;
14048;SDS011;7099;53.922;10.728;2023-08-07T20:24:27;13.90;;;3.00;;
14048;SDS011;7099;53.922;10.728;2023-08-07T20:28:33;13.93;;;3.13;;
14048;SDS011;7099;53.922;10.728;2023-08-07T20:32:39;14.33;;;2.33;;
14048;SDS011;7099;53.922;10.728;2023-08-07T20:36:44;11.97;;;3.10;;
14048;SDS011;7099;53.922;10.728;2023-08-07T20:40:50;11.90;;;3.30;;
14048;SDS011;7099;53.922;10.728;2023-08-07T20:44:56;10.07;;;2.87;;
14048;SDS011;7099;53.922;10.728;2023-08-07T20:49:01;8.73;;;2.87;;
14048;SDS011;7099;53.922;10.728;2023-08-07T20:53:07;14.07;;;3.10;;
14048;SDS011;7099;53.922;10.728;2023-08-07T20:57:13;9.77;;;2.87;;
14048;SDS011;7099;53.922;10.728;2023-08-07T21:01:19;9.43;;;3.20;;
14048;SDS011;7099;53.922;10.728;2023-08-07T21:05:24;13.53;;;3.13;;
14048;SDS011;7099;53.922;10.728;2023-08-07T21:09:30;6.63;;;2.63;;
14048;SDS011;7099;53.922;10.728;2023-08-07T21:13:36;10.50;;;2.57;;
14048;SDS011;7099;53.922;10.728;2023-08-07T21:17:43;10.03;;;3.00;;
14048;SDS011;7099;53.922;10.728;2023-08-07T21:21:48;11.00;;;4.00;;
14048;SDS011;7099;53.922;10.728;2023-08-07T21:25:54;11.33;;;3.23;;
14048;SDS011;7099;53.922;10.728;2023-08-07T21:30:00;28.57;;;3.40;;
14048;SDS011;7099;53.922;10.728;2023-08-07T21:34:06;15.37;;;3.07;;
14048;SDS011;7099;53.922;10.728;2023-08-07T21:38:11;13.77;;;3.27;;
14048;SDS011;7099;53.922;10.728;2023-08-07T21:42:18;15.83;;;3.53;;
14048;SDS011;7099;53.922;10.728;2023-08-07T21:46:23;11.30;;;3.20;;
14048;SDS011;7099;53.922;10.728;2023-08-07T21:50:29;12.67;;;3.07;;
14048;SDS011;7099;53.922;10.728;2023-08-07T21:54:34;9.47;;;2.47;;
14048;SDS011;7099;53.922;10.728;2023-08-07T21:58:41;12.27;;;2.90;;
14048;SDS011;7099;53.922;10.728;2023-08-07T22:02:47;8.50;;;2.73;;
14048;SDS011;7099;53.922;10.728;2023-08-07T22:06:52;8.97;;;2.80;;
14048;SDS011;7099;53.922;10.728;2023-08-07T22:10:58;10.70;;;2.57;;
14048;SDS011;7099;53.922;10.728;2023-08-07T22:15:04;7.23;;;2.40;;
14048;SDS011;7099;53.922;10.728;2023-08-07T22:19:13;13.23;;;2.70;;
14048;SDS011;7099;53.922;10.728;2023-08-07T22:23:18;9.47;;;2.33;;
14048;SDS011;7099;53.922;10.728;2023-08-07T22:27:24;8.70;;;2.60;;
14048;SDS011;7099;53.922;10.728;2023-08-07T22:31:29;13.07;;;3.07;;
14048;SDS011;7099;53.922;10.728;2023-08-07T22:35:35;12.80;;;2.67;;
14048;SDS011;7099;53.922;10.728;2023-08-07T22:39:40;10.27;;;2.37;;
14048;SDS011;7099;53.922;10.728;2023-08-07T22:43:46;16.17;;;3.33;;
14048;SDS011;7099;53.922;10.728;2023-08-07T22:47:52;14.83;;;3.27;;
14048;SDS011;7099;53.922;10.728;2023-08-07T22:51:57;14.03;;;3.00;;
14048;SDS011;7099;53.922;10.728;2023-08-07T22:56:03;15.67;;;2.90;;
14048;SDS011;7099;53.922;10.728;2023-08-07T23:00:09;6.30;;;1.93;;
14048;SDS011;7099;53.922;10.728;2023-08-07T23:04:16;10.93;;;2.90;;
14048;SDS011;7099;53.922;10.728;2023-08-07T23:08:22;12.83;;;2.53;;
14048;SDS011;7099;53.922;10.728;2023-08-07T23:12:28;9.93;;;2.40;;
14048;SDS011;7099;53.922;10.728;2023-08-07T23:16:33;7.17;;;2.40;;
14048;SDS011;7099;53.922;10.728;2023-08-07T23:20:39;11.83;;;2.83;;
14048;SDS011;7099;53.922;10.728;2023-08-07T23:24:45;13.47;;;2.73;;
14048;SDS011;7099;53.922;10.728;2023-08-07T23:28:50;5.23;;;1.63;;
14048;SDS011;7099;53.922;10.728;2023-08-07T23:32:56;5.30;;;2.13;;
14048;SDS011;7099;53.922;10.728;2023-08-07T23:37:01;10.73;;;2.20;;
14048;SDS011;7099;53.922;10.728;2023-08-07T23:41:07;6.30;;;2.10;;
14048;SDS011;7099;53.922;10.728;2023-08-07T23:45:13;9.27;;;1.70;;
14048;SDS011;7099;53.922;10.728;2023-08-07T23:49:18;6.50;;;1.70;;
14048;SDS011;7099;53.922;10.728;2023-08-07T23:53:24;4.63;;;2.07;;
14048;SDS011;7099;53.922;10.728;2023-08-07T23:57:29;7.87;;;2.20;;
